Bookmark and Share
Track history (hours):
 

Ocean Navigator

More information available from US FCC via Universal Licensing System and Coast Guard Vessel Documentation Center.

Last reported at 2014-Apr-21 18:32 UTC. Time now 2014-Apr-23 07:12 UTC.
Position N 54°30' W 130°42'.

Type: Tow > 200 m length. MMSI: 366358000.

NotesDate/timePositionNaut miles runAvg speedWind from/ knotsBaromVisibWave heightAir tempDewpointWater temp
2014-Apr-21 18:32N 54°30' W 130°42'1010.1
2014-Apr-21 17:33N 54°21' W 130°36'1110.6
2014-Apr-21 16:33N 54°11' W 130°28'187 8.5
2014-Apr-20 18:33N 51°30' W 127°52'19 9.4
2014-Apr-20 16:32N 51°11' W 127°51'10 9.7
2014-Apr-20 15:33N 51°04' W 127°41'10 9.9
2014-Apr-20 14:33N 50°57' W 127°29'1010.2
2014-Apr-20 13:33N 50°50' W 127°17'10 9.7
2014-Apr-20 12:33N 50°44' W 127°06'13 9.1
2014-Apr-20 11:07N 50°38' W 126°48'6 9.4
2014-Apr-20 10:30N 50°34' W 126°41'66 8.0
2014-Apr-20 02:14N 49°60' W 125°12'3 4.2
2014-Apr-20 01:33N 49°58' W 125°09'6 5.9
2014-Apr-20 00:33N 49°54' W 125°02'6 6.4
2014-Apr-19 23:33N 49°50' W 124°54'6 5.8
2014-Apr-19 22:32N 49°46' W 124°47'6 5.9
2014-Apr-19 21:33N 49°42' W 124°40'6 5.6
2014-Apr-19 20:33N 49°39' W 124°33'6 6.1
2014-Apr-19 19:33N 49°36' W 124°26'6 6.5
2014-Apr-19 18:33N 49°32' W 124°17'6 6.5
2014-Apr-19 17:33N 49°29' W 124°09'7 6.9
2014-Apr-19 16:33N 49°24' W 124°01'8 7.6
2014-Apr-19 15:33N 49°20' W 123°51'1010.0
2014-Apr-19 14:33N 49°14' W 123°39'1010.2
2014-Apr-19 13:33N 49°08' W 123°27'1010.2
2014-Apr-19 12:34N 49°01' W 123°16'1010.2
2014-Apr-19 11:33N 48°54' W 123°04'1010.1
2014-Apr-19 10:33N 48°48' W 122°52'9 9.2
2014-Apr-19 09:33N 48°41' W 122°43'8 7.9
2014-Apr-19 08:33N 48°33' W 122°45'8 8.4
2014-Apr-19 07:32N 48°25' W 122°44'10 8.9
2014-Apr-19 06:25N 48°15' W 122°48'11 9.8
2014-Apr-19 05:17N 48°05' W 122°39'7 9.8
2014-Apr-19 04:32N 47°59' W 122°35'110.7
2014-Apr-19 04:25N 47°58' W 122°34'8 9.3
2014-Apr-19 03:33N 47°51' W 122°27'0 8.8
2014-Apr-19 03:31N 47°51' W 122°27'9 9.7
2014-Apr-19 02:33N 47°41' W 122°27'0 8.8
2014-Apr-19 02:30N 47°41' W 122°27'6 6.7
2014-Apr-19 01:33N 47°35' W 122°22'0 0.1
2014-Apr-19 01:30N 47°35' W 122°22'5 5.3
2014-Apr-19 00:33N 47°40' W 122°24'0 6.1
2014-Apr-19 00:30N 47°40' W 122°24'1 0.7
2014-Apr-18 23:33N 47°40' W 122°23'0 0.0
2014-Apr-18 23:30N 47°40' W 122°23'1 1.0
2014-Apr-18 22:33N 47°39' W 122°22'0 0.0
2014-Apr-18 22:30N 47°39' W 122°22'0 0.0
2014-Apr-18 21:33N 47°39' W 122°22'0 0.0
2014-Apr-18 21:30N 47°39' W 122°22'0 0.0
2014-Apr-18 20:33N 47°39' W 122°22'0 0.0
2014-Apr-18 20:30N 47°39' W 122°22'  
2014-Apr-14 18:31N 47°39' W 122°22'0 0.0
2014-Apr-14 17:33N 47°39' W 122°22'380.6
2014-Apr-14 17:31N 47°41' W 122°25'0 0.4
2014-Apr-14 16:33N 47°41' W 122°25'1110.8
2014-Apr-14 15:34N 47°51' W 122°29'9 9.0
2014-Apr-14 14:34N 47°60' W 122°35'26 8.6
2014-Apr-14 11:33N 48°24' W 122°45'1010.0
2014-Apr-14 10:34N 48°34' W 122°45'9 9.3
2014-Apr-14 09:34N 48°44' W 122°46'1110.7
2014-Apr-14 08:34N 48°50' W 122°59'1110.5
2014-Apr-14 07:34N 48°56' W 123°12'1110.9
2014-Apr-14 06:34N 49°04' W 123°24'1111.2
2014-Apr-14 05:33N 49°11' W 123°37'9312.6
2014-Apr-13 22:11N 50°14' W 125°23'6110.7
2014-Apr-13 16:31N 50°39' W 126°49'1211.1
2014-Apr-13 15:27N 50°45' W 127°06'1010.4
2014-Apr-13 14:28N 50°51' W 127°19'910.1
2014-Apr-13 13:33N 50°57' W 127°29'1010.0
2014-Apr-13 12:33N 51°04' W 127°41'2310.3
2014-Apr-13 10:18N 51°23' W 128°01'  

Dump ship's entire track history

sailing weather and tide predictions

Ocean Navigator — WSC2552 — position and weather